Aérodrome :
LOGIN :

S'inscrire | Disclaimer

   EN    FR    IT 

 










Légende :    VFR   VFR Marginal   IFR   IFR Intensif   IFR Très Intensif
Visi : 
Plafond : 
>= 8 km
>= 3000ft
5 à 8 km
1000 à 3000 ft
1500m à 5 km
500 à 1000 ft
800 à 1500m
200 à 500 ft
< 800m
< 200 ft
Symboles :   Orages  Brouillard  Fortes neiges  Fortes précipitations  Vent > 20 kt
SIGMETs :   Divers  Orages  Givrage  Turbulence  Onde Orograph.  Cendres Volcan.






- Altitude de l'aérodrome : 20 ft


EBFN - Koksijde

DERNIER METAR :
  • 301525Z AUTO 17005KT 9999 -RA OVC052/// 15/14 Q1014 BLU

METARs EXPIRÉS :
  • 301455Z AUTO 16004KT 9999 -RA FEW012/// BKN046/// 15/14 Q1013 BLU
  • 301433Z 17005KT 9999 FEW007 SCT017 BKN040 15/14 Q1014 WHT FCST CANCEL
  • 301425Z 19005KT 9999 -RA FEW008 SCT017 BKN035 15/14 Q1014 WHT WHT TEMPO GRN
  • 301412Z 20006KT 9999 -RA FEW008 SCT017 BKN035 14/13 Q1014 WHT WHT TEMPO GRN
  • 301355Z 17005KT 9999 RA FEW008 SCT012 BKN030 15/14 Q1013 GRN WHT TEMPO GRN
  • 301349Z 16004KT 5000 RA FEW009 SCT012 BKN030 15/14 Q1013 GRN WHT TEMPO GRN
  • 301255Z 21004KT 9999 -RA FEW009 SCT015 BKN070 15/13 Q1013 WHT WHT TEMPO GRN

TAF TAF EBFN
Valide du 30 à 13h jusqu'au 30 à 22h UTC


301140Z 3013/3022 24008KT 8000 -RA SCT015 BKN040
TEMPO 3013/3022 9999 FEW020 BKN060
PROB40
TEMPO 3013/3018 VRB05KT 4000 SHRA BKN010 BKN015TCU



MET'MAP, la Météo Aéronautique d'un coup d'oeil ! - Copyright ORBIFLY Décembre 2007 - Disclaimer

ORBIFLY MET'MAP TEAM :

Programmation & Développement : Alexandra Zaïnal
Sur une idée originale de : Baudouin d'Aumeries
Soutien technique & logistique : Manuel Goepfert
Assistance : Marc-Olivier Méhu




SOURCES & CREDITS :

   NOAA